Time;durP1;ratioP1;P1;durP2;ratioP2;P2;SDS_P1;SDS_P2;PMS_P1;PMS_P2;Temp;Humidity;BMP_temperature;BMP_pressure;BME280_temperature;BME280_humidity;BME280_pressure;Samples;Min_cycle;Max_cycle;Signal;HPM_P1;HPM_P2
2022/04/18 00:00:03;;;;;;;5.00;4.43;;;;;;;-0.77;73.06;98154.84;6154331;28;20230;-81
2022/04/18 00:03:08;;;;;;;3.80;3.50;;;;;;;-0.81;72.91;98148.94;6155958;28;20218;-81
2022/04/18 00:06:10;;;;;;;4.57;4.00;;;;;;;-0.81;73.06;98150.66;6137589;28;20222;-80
2022/04/18 00:09:12;;;;;;;4.70;4.10;;;;;;;-0.84;73.30;98142.97;6154328;28;20214;-80
2022/04/18 00:12:14;;;;;;;4.50;3.43;;;;;;;-0.87;72.91;98138.72;6153564;28;20233;-80
2022/04/18 00:15:16;;;;;;;6.63;3.93;;;;;;;-0.90;73.18;98141.38;6140349;28;20293;-81
2022/04/18 00:18:18;;;;;;;4.83;3.33;;;;;;;-0.86;73.27;98137.81;6142417;28;20218;-81
2022/04/18 00:21:20;;;;;;;4.03;3.50;;;;;;;-0.83;73.14;98140.34;6158645;28;20238;-81
2022/04/18 00:24:22;;;;;;;4.13;3.70;;;;;;;-0.81;73.31;98129.94;6158874;28;20233;-80
2022/04/18 00:27:24;;;;;;;5.93;4.23;;;;;;;-0.82;73.36;98125.66;6134908;28;20280;-81
2022/04/18 00:30:26;;;;;;;4.43;4.03;;;;;;;-0.85;73.30;98120.53;6138919;28;20368;-80
2022/04/18 00:33:29;;;;;;;5.83;4.23;;;;;;;-0.86;73.46;98124.88;6158854;28;20583;-80
2022/04/18 00:36:31;;;;;;;6.07;4.13;;;;;;;-0.89;73.28;98113.72;6170350;28;20260;-80
2022/04/18 00:39:33;;;;;;;3.87;3.23;;;;;;;-0.90;73.32;98112.88;6172847;28;20240;-81
2022/04/18 00:42:35;;;;;;;4.33;3.87;;;;;;;-0.94;73.42;98111.28;6142966;28;20232;-80
2022/04/18 00:45:37;;;;;;;4.33;3.33;;;;;;;-0.97;73.48;98108.78;6141651;28;20226;-80
2022/04/18 00:48:40;;;;;;;5.83;3.87;;;;;;;-0.99;73.11;98107.97;6158842;28;20732;-80
2022/04/18 00:51:42;;;;;;;3.80;3.50;;;;;;;-1.01;73.78;98104.59;6159534;28;20225;-82
2022/04/18 00:54:44;;;;;;;4.20;3.73;;;;;;;-1.05;73.65;98105.56;6158397;28;20275;-80
2022/04/18 00:57:47;;;;;;;4.90;3.70;;;;;;;-1.12;73.70;98102.28;6158542;28;20248;-80
2022/04/18 01:00:49;;;;;;;4.00;3.60;;;;;;;-1.18;74.19;98102.44;6158331;28;20236;-80
2022/04/18 01:03:52;;;;;;;4.00;3.60;;;;;;;-1.22;74.03;98092.22;6174288;28;20233;-80
2022/04/18 01:06:54;;;;;;;4.60;3.87;;;;;;;-1.27;74.25;98089.75;6157197;28;20238;-80
2022/04/18 01:09:56;;;;;;;5.03;3.93;;;;;;;-1.31;74.06;98082.97;6157837;28;20230;-81
2022/04/18 01:12:58;;;;;;;4.43;3.80;;;;;;;-1.35;74.60;98083.06;6157944;28;20288;-80
2022/04/18 01:16:33;;;;;;;4.87;4.37;;;;;;;-1.38;74.74;98075.38;6146494;28;20230;-80
2022/04/18 01:20:04;;;;;;;4.50;3.80;;;;;;;-1.35;74.69;98075.31;6154100;28;20275;-80
2022/04/18 01:23:42;;;;;;;5.07;4.00;;;;;;;-1.36;75.10;98068.41;6153129;28;20229;-81
2022/04/18 01:30:28;;;;;;;4.77;4.03;;;;;;;-1.38;74.90;98068.47;6131795;28;20297;-80
2022/04/18 01:33:35;;;;;;;3.60;3.30;;;;;;;-1.37;74.99;98064.97;6131522;28;20629;-80
2022/04/18 01:36:37;;;;;;;5.57;4.50;;;;;;;-1.37;74.97;98061.53;6141729;28;20730;-80
2022/04/18 01:39:43;;;;;;;6.00;4.13;;;;;;;-1.39;75.02;98066.75;6157213;28;20720;-80
2022/04/18 01:42:46;;;;;;;4.00;3.60;;;;;;;-1.41;74.84;98057.34;6157175;28;20229;-80
2022/04/18 01:45:50;;;;;;;5.00;4.47;;;;;;;-1.46;74.87;98051.44;6157893;28;20711;-80
2022/04/18 01:48:58;;;;;;;6.43;4.27;;;;;;;-1.51;74.79;98046.41;6156542;28;20369;-81
2022/04/18 01:52:00;;;;;;;4.63;3.70;;;;;;;-1.55;75.03;98040.44;6157476;28;20295;-80
2022/04/18 01:55:03;;;;;;;3.90;3.50;;;;;;;-1.58;74.98;98044.84;6157050;28;20226;-81
2022/04/18 01:58:05;;;;;;;4.13;3.73;;;;;;;-1.59;75.44;98040.56;6158961;28;20213;-80
2022/04/18 02:01:07;;;;;;;4.43;4.00;;;;;;;-1.64;75.73;98038.09;6141191;28;20221;-80
2022/04/18 02:04:10;;;;;;;4.17;3.70;;;;;;;-1.65;75.38;98032.97;6157223;28;20716;-80
2022/04/18 02:07:11;;;;;;;4.10;3.37;;;;;;;-1.66;75.75;98032.13;6132526;28;20668;-80
2022/04/18 02:10:20;;;;;;;4.63;3.97;;;;;;;-1.69;75.85;98029.59;6155197;28;20296;-80
2022/04/18 02:13:22;;;;;;;4.80;3.90;;;;;;;-1.69;75.64;98020.97;6117108;28;20242;-82
2022/04/18 02:16:25;;;;;;;5.80;4.10;;;;;;;-1.73;76.02;98017.66;6147068;28;20569;-80
2022/04/18 02:19:28;;;;;;;5.13;4.13;;;;;;;-1.75;75.92;98019.41;6155920;28;20253;-80
2022/04/18 02:22:30;;;;;;;5.30;3.77;;;;;;;-1.76;75.98;98009.97;6156195;28;20361;-81
2022/04/18 02:25:32;;;;;;;4.80;3.90;;;;;;;-1.76;76.06;98014.28;6137964;28;20744;-80
2022/04/18 02:28:41;;;;;;;4.97;3.80;;;;;;;-1.79;75.79;98006.59;6140382;28;20229;-80
2022/04/18 02:35:07;;;;;;;4.20;3.67;;;;;;;-1.87;75.92;97997.31;6157060;28;20233;-81
2022/04/18 02:38:09;;;;;;;4.00;3.40;;;;;;;-1.92;76.29;97988.84;6137884;28;20312;-80
2022/04/18 02:41:22;;;;;;;4.23;3.83;;;;;;;-1.95;76.23;97981.13;6146285;28;20281;-80
2022/04/18 02:44:24;;;;;;;5.13;4.40;;;;;;;-1.97;76.37;97984.66;6145789;28;20233;-80
2022/04/18 02:47:47;;;;;;;4.33;3.93;;;;;;;-1.99;75.93;97982.09;6161123;28;20768;-80
2022/04/18 02:50:48;;;;;;;4.40;3.73;;;;;;;-1.99;76.44;97978.66;6154771;28;20242;-80
2022/04/18 02:53:56;;;;;;;4.77;4.13;;;;;;;-2.01;76.65;97972.69;6132487;28;20226;-80
2022/04/18 02:56:58;;;;;;;4.07;3.67;;;;;;;-2.02;76.54;97971.84;6141760;28;20233;-80
2022/04/18 03:00:00;;;;;;;4.00;3.63;;;;;;;-2.02;76.62;97971.00;6139247;28;20594;-80
2022/04/18 03:03:03;;;;;;;3.83;3.40;;;;;;;-2.04;77.03;97970.19;6155808;28;20645;-81
2022/04/18 03:06:10;;;;;;;6.57;4.67;;;;;;;-2.06;76.89;97970.22;6154880;28;20574;-80
2022/04/18 03:09:12;;;;;;;5.03;4.07;;;;;;;-2.09;77.10;97970.28;6155064;28;20210;-80
2022/04/18 03:12:14;;;;;;;4.33;3.93;;;;;;;-2.10;77.32;97968.63;6139118;28;20769;-81
2022/04/18 03:15:16;;;;;;;5.33;4.40;;;;;;;-2.14;77.11;97960.97;6138830;28;20213;-80
2022/04/18 03:18:18;;;;;;;4.83;4.33;;;;;;;-2.17;77.53;97971.38;6157158;28;20304;-80
2022/04/18 03:21:20;;;;;;;4.10;3.70;;;;;;;-2.21;77.39;97960.28;6147106;28;20233;-80
2022/04/18 03:24:25;;;;;;;6.37;4.57;;;;;;;-2.26;77.20;97954.38;6163110;28;20247;-81
2022/04/18 03:27:37;;;;;;;5.33;4.10;;;;;;;-2.30;77.44;97952.75;6154163;28;20694;-80
2022/04/18 03:30:40;;;;;;;5.37;4.77;;;;;;;-2.30;77.51;97951.03;6154821;28;20353;-80
2022/04/18 03:33:42;;;;;;;4.90;4.40;;;;;;;-2.28;77.92;97940.63;6139378;28;20312;-81
2022/04/18 03:40:09;;;;;;;5.60;5.10;;;;;;;-2.32;77.49;97931.28;6154706;28;20222;-80
2022/04/18 03:43:11;;;;;;;4.87;4.30;;;;;;;-2.32;77.82;97926.94;6154227;28;20225;-80
2022/04/18 03:46:13;;;;;;;4.47;3.90;;;;;;;-2.31;78.10;97928.66;6138120;28;20256;-81
2022/04/18 03:49:15;;;;;;;4.90;4.40;;;;;;;-2.30;77.97;97925.19;6155843;28;20226;-81
2022/04/18 03:52:23;;;;;;;17.90;10.23;;;;;;;-2.27;77.56;97931.97;6137546;28;20250;-81
2022/04/18 03:55:28;;;;;;;7.43;5.50;;;;;;;-2.30;77.89;97925.19;6153986;28;20237;-80
2022/04/18 03:58:32;;;;;;;6.00;4.80;;;;;;;-2.37;77.70;97925.34;6137453;28;20226;-80
2022/04/18 04:01:35;;;;;;;6.73;5.47;;;;;;;-2.43;78.24;97922.94;6153403;28;20383;-81
2022/04/18 04:04:37;;;;;;;6.67;4.77;;;;;;;-2.45;78.34;97919.53;6152968;28;20635;-80
2022/04/18 04:07:39;;;;;;;5.77;4.70;;;;;;;-2.48;77.93;97917.00;6153356;28;20240;-80
2022/04/18 04:10:56;;;;;;;7.10;5.73;;;;;;;-2.47;77.98;97922.16;6153511;28;20230;-80
2022/04/18 04:14:01;;;;;;;5.23;4.70;;;;;;;-2.45;78.30;97920.38;6137812;28;20295;-81
2022/04/18 04:17:05;;;;;;;6.23;5.03;;;;;;;-2.41;78.59;97916.84;6153114;28;20303;-80
2022/04/18 04:20:08;;;;;;;6.50;4.57;;;;;;;-2.39;77.70;97919.38;6152704;28;20320;-81
2022/04/18 04:23:10;;;;;;;6.60;4.93;;;;;;;-2.34;77.95;97914.94;6138613;28;20236;-80
2022/04/18 04:26:30;;;;;;;5.77;4.97;;;;;;;-2.32;77.93;97918.34;6153214;28;20233;-81
2022/04/18 04:29:34;;;;;;;5.50;4.87;;;;;;;-2.34;78.24;97914.94;6153158;28;20710;-81
2022/04/18 04:32:39;;;;;;;6.80;4.80;;;;;;;-2.37;78.44;97912.44;6153280;28;20238;-80
2022/04/18 04:35:41;;;;;;;6.70;4.27;;;;;;;-2.36;77.96;97914.13;6142236;28;20241;-80
2022/04/18 04:38:46;;;;;;;6.33;5.07;;;;;;;-2.34;78.47;97912.38;6154421;28;20238;-80
2022/04/18 04:41:56;;;;;;;6.20;5.43;;;;;;;-2.30;78.24;97914.84;6137872;28;20321;-80
2022/04/18 04:44:58;;;;;;;6.73;4.97;;;;;;;-2.27;78.88;97904.41;6160590;28;20237;-80
2022/04/18 04:48:20;;;;;;;6.20;4.83;;;;;;;-2.21;78.26;97902.56;6146705;28;173623;-81
2022/04/18 04:51:26;;;;;;;5.10;4.60;;;;;;;-2.15;78.61;97897.22;6141620;28;20229;-80
2022/04/18 04:54:28;;;;;;;6.33;5.63;;;;;;;-2.08;78.40;97893.56;6155429;28;20689;-81
2022/04/18 04:57:30;;;;;;;6.83;5.57;;;;;;;-1.97;78.28;97891.56;6142053;28;20222;-81
2022/04/18 05:00:51;;;;;;;7.50;5.37;;;;;;;-1.76;78.44;97893.56;6157049;28;20222;-80
2022/04/18 05:04:16;;;;;;;5.90;5.30;;;;;;;-1.52;78.44;97882.53;6155061;28;20677;-81
2022/04/18 05:07:18;;;;;;;6.57;5.87;;;;;;;-1.29;78.24;97883.56;6141403;28;20599;-80
2022/04/18 05:10:43;;;;;;;5.87;5.17;;;;;;;-1.01;77.70;97874.09;6156956;28;20333;-80
2022/04/18 05:13:54;;;;;;;6.87;5.17;;;;;;;-0.83;77.66;97873.50;6142599;28;20238;-81
2022/04/18 05:17:15;;;;;;;7.03;5.40;;;;;;;-0.66;77.12;97872.94;6144008;28;20603;-81
2022/04/18 05:20:26;;;;;;;6.23;5.40;;;;;;;-0.47;77.03;97868.00;6143086;28;20753;-81
2022/04/18 05:23:29;;;;;;;7.13;5.23;;;;;;;-0.26;76.54;97861.25;6141977;28;20241;-81
2022/04/18 05:26:31;;;;;;;5.73;5.13;;;;;;;-0.08;76.07;97865.78;6141028;28;20264;-81
2022/04/18 05:29:33;;;;;;;5.63;5.03;;;;;;;0.08;75.52;97860.91;6156811;28;20229;-81
2022/04/18 05:32:35;;;;;;;5.77;5.20;;;;;;;0.25;74.97;97864.59;6156925;28;20237;-81
2022/04/18 05:35:42;;;;;;;5.87;5.27;;;;;;;0.40;74.93;97857.97;6164114;28;20217;-81
2022/04/18 05:38:45;;;;;;;5.93;4.60;;;;;;;0.53;74.41;97855.78;6174924;28;20214;-81
2022/04/18 05:41:51;;;;;;;6.07;5.03;;;;;;;0.63;73.95;97852.78;6141814;28;20852;-81
2022/04/18 05:44:57;;;;;;;6.97;5.00;;;;;;;0.75;74.06;97854.06;6142768;28;20229;-81
2022/04/18 05:47:59;;;;;;;5.60;4.97;;;;;;;0.84;73.94;97850.28;6158372;28;20245;-81
2022/04/18 05:51:04;;;;;;;7.47;5.03;;;;;;;0.98;73.49;97841.03;6141638;28;20242;-81
2022/04/18 05:54:07;;;;;;;5.37;4.87;;;;;;;1.07;73.28;97838.09;6133092;28;20359;-81
2022/04/18 05:57:15;;;;;;;7.43;4.60;;;;;;;1.17;72.82;97841.16;6148964;28;20214;-81
2022/04/18 06:00:23;;;;;;;4.73;4.33;;;;;;;1.31;72.94;97837.97;6156658;28;20240;-81
2022/04/18 06:03:30;;;;;;;5.87;4.40;;;;;;;1.41;72.45;97831.50;6142746;28;20245;-81
2022/04/18 06:06:33;;;;;;;5.93;4.63;;;;;;;1.55;72.67;97825.72;6140443;28;20234;-81
2022/04/18 06:09:35;;;;;;;5.47;4.57;;;;;;;1.75;72.44;97833.53;6156381;28;20241;-81
2022/04/18 06:12:37;;;;;;;5.50;4.30;;;;;;;2.01;71.78;97828.03;6154324;28;20236;-81
2022/04/18 06:15:40;;;;;;;6.73;4.10;;;;;;;2.20;71.08;97818.50;6155823;28;20246;-81
2022/04/18 06:18:42;;;;;;;5.30;4.50;;;;;;;2.47;72.55;97823.41;6156343;28;20603;-81
2022/04/18 06:21:49;;;;;;;4.93;4.43;;;;;;;2.79;72.74;97812.34;6132117;28;20243;-81
2022/04/18 06:24:53;;;;;;;3.77;3.33;;;;;;;3.14;70.66;97822.81;6142952;28;20242;-81
2022/04/18 06:28:01;;;;;;;3.70;3.10;;;;;;;3.52;64.18;97831.38;6149085;28;20794;-81
2022/04/18 06:31:12;;;;;;;4.17;3.77;;;;;;;3.94;64.88;97823.16;6149602;28;20546;-81
2022/04/18 06:34:21;;;;;;;4.73;3.40;;;;;;;4.20;67.31;97817.41;6143528;28;20697;-81
2022/04/18 06:37:24;;;;;;;5.33;3.07;;;;;;;4.50;65.36;97821.94;6169921;28;20598;-81
2022/04/18 06:40:37;;;;;;;4.43;3.20;;;;;;;4.75;65.18;97831.00;6154984;28;20310;-81
2022/04/18 06:43:39;;;;;;;5.53;2.83;;;;;;;4.88;63.36;97818.09;6139696;28;20246;-81
2022/04/18 06:46:45;;;;;;;4.13;2.70;;;;;;;5.09;58.33;97821.28;6139557;28;20232;-81
2022/04/18 06:50:08;;;;;;;3.70;2.70;;;;;;;5.39;58.92;97826.56;6155246;28;20238;-81
2022/04/18 06:53:16;;;;;;;2.93;2.20;;;;;;;5.50;56.35;97827.63;6157017;28;20272;-81
2022/04/18 06:56:59;;;;;;;2.67;2.27;;;;;;;5.63;55.91;97830.38;6156921;28;20284;-81
2022/04/18 07:00:13;;;;;;;3.33;2.27;;;;;;;5.71;52.84;97836.00;6141515;28;20840;-81
2022/04/18 07:03:15;;;;;;;3.17;2.60;;;;;;;5.80;53.66;97839.84;6139163;28;20255;-81
2022/04/18 07:06:18;;;;;;;5.67;2.40;;;;;;;5.90;52.14;97827.94;6139659;28;20686;-81
2022/04/18 07:09:21;;;;;;;3.83;2.37;;;;;;;5.97;51.78;97831.06;6138592;28;20236;-81
2022/04/18 07:12:26;;;;;;;3.03;2.47;;;;;;;5.96;50.08;97832.00;6138885;28;20225;-81
2022/04/18 07:15:28;;;;;;;6.43;2.63;;;;;;;6.00;49.83;97821.22;6139200;28;20229;-81
2022/04/18 07:18:34;;;;;;;4.40;2.57;;;;;;;6.02;51.14;97829.00;6154618;28;20542;-81
2022/04/18 07:21:38;;;;;;;3.77;2.60;;;;;;;5.98;49.62;97833.59;6155013;28;20237;-81
2022/04/18 07:24:40;;;;;;;3.87;2.30;;;;;;;5.98;50.35;97823.13;6154748;28;20713;-81
2022/04/18 07:27:44;;;;;;;4.17;2.53;;;;;;;5.95;50.44;97825.06;6153852;28;20229;-81
2022/04/18 07:30:47;;;;;;;3.37;2.57;;;;;;;5.92;49.87;97826.06;6138911;28;20221;-81
2022/04/18 07:33:49;;;;;;;4.10;2.50;;;;;;;5.95;49.81;97831.16;6153773;28;20243;-81
2022/04/18 07:36:54;;;;;;;5.93;2.53;;;;;;;5.98;49.37;97824.88;6144457;28;20226;-81
2022/04/18 07:39:57;;;;;;;3.77;2.17;;;;;;;5.98;48.70;97817.03;6156714;28;20234;-82
2022/04/18 07:42:58;;;;;;;3.13;2.30;;;;;;;6.01;48.92;97812.44;6156563;28;20218;-82
2022/04/18 07:46:02;;;;;;;3.67;2.60;;;;;;;6.10;49.79;97808.41;6154599;28;20224;-82
2022/04/18 07:49:09;;;;;;;3.00;2.30;;;;;;;6.20;49.20;97812.16;6152902;28;20773;-81
2022/04/18 07:52:16;;;;;;;4.47;2.50;;;;;;;6.26;49.73;97806.56;6154721;28;20245;-82
2022/04/18 07:55:31;;;;;;;3.23;2.33;;;;;;;6.36;49.47;97804.22;6153982;28;20259;-81
2022/04/18 07:58:33;;;;;;;2.93;2.53;;;;;;;6.36;48.44;97805.06;6154083;28;20713;-81
2022/04/18 08:01:38;;;;;;;3.13;2.33;;;;;;;6.45;48.92;97801.03;6138059;28;20320;-81
2022/04/18 08:04:42;;;;;;;3.67;2.57;;;;;;;6.50;48.59;97801.56;6139349;28;20229;-81
2022/04/18 08:07:48;;;;;;;3.10;2.40;;;;;;;6.51;48.28;97805.88;6138462;28;20569;-81
2022/04/18 08:10:51;;;;;;;3.43;2.67;;;;;;;6.46;47.74;97818.44;6152865;28;20241;-81
2022/04/18 08:13:54;;;;;;;4.30;2.60;;;;;;;6.42;47.99;97820.41;6153419;28;20272;-81
2022/04/18 08:17:15;;;;;;;4.70;2.50;;;;;;;6.35;48.62;97826.97;6158339;28;20226;-82
2022/04/18 08:20:20;;;;;;;2.80;2.27;;;;;;;6.34;48.51;97827.06;6154106;28;20230;-83
2022/04/18 08:23:22;;;;;;;4.63;2.70;;;;;;;6.29;48.47;97827.31;6153634;28;20732;-81
2022/04/18 08:26:47;;;;;;;3.20;2.30;;;;;;;6.31;48.74;97820.22;6131519;28;20746;-81
2022/04/18 08:29:55;;;;;;;3.57;2.30;;;;;;;6.32;48.72;97815.81;6138440;28;20238;-82
2022/04/18 08:33:21;;;;;;;4.80;2.20;;;;;;;6.34;49.71;97814.78;6142614;28;20232;-82
2022/04/18 08:36:23;;;;;;;6.60;2.77;;;;;;;6.38;49.38;97811.06;6152037;28;20229;-82
2022/04/18 08:39:27;;;;;;;3.20;2.60;;;;;;;6.41;49.39;97810.84;6180973;28;20771;-81
2022/04/18 08:42:42;;;;;;;4.80;2.50;;;;;;;6.38;51.29;97808.44;6144119;28;20237;-81
2022/04/18 08:45:46;;;;;;;4.67;2.33;;;;;;;6.33;50.51;97802.63;6157619;28;20304;-82
2022/04/18 08:52:43;;;;;;;2.70;2.10;;;;;;;6.26;50.74;97809.19;6158484;28;20316;-81
2022/04/18 08:55:43;;;;;;;2.73;2.27;;;;;;;6.26;50.55;97807.41;6160206;28;20249;-81
2022/04/18 08:59:00;;;;;;;4.07;2.30;;;;;;;6.23;49.98;97802.34;6159370;28;20602;-81
2022/04/18 09:02:03;;;;;;;4.83;2.33;;;;;;;6.21;49.59;97811.22;6158117;28;20245;-81
2022/04/18 09:05:17;;;;;;;2.50;2.07;;;;;;;6.25;50.74;97792.63;6142921;28;20579;-82
2022/04/18 09:08:19;;;;;;;3.73;2.27;;;;;;;6.28;49.97;97799.47;6141335;28;20261;-81
2022/04/18 09:11:32;;;;;;;3.80;2.30;;;;;;;6.32;50.72;97795.69;6141638;28;20753;-82
2022/04/18 09:14:38;;;;;;;2.67;2.33;;;;;;;6.38;51.03;97802.34;6157440;28;20230;-81
2022/04/18 09:17:40;;;;;;;4.23;2.63;;;;;;;6.35;51.05;97806.00;6141087;28;20233;-81
2022/04/18 09:21:04;;;;;;;3.93;2.50;;;;;;;6.29;51.47;97809.81;6156973;28;20242;-81
2022/04/18 09:24:31;;;;;;;2.57;1.90;;;;;;;6.09;52.28;97809.38;6152372;28;20577;-81
2022/04/18 09:28:03;;;;;;;2.70;2.50;;;;;;;5.96;53.67;97803.19;6157265;28;20223;-81
2022/04/18 09:31:12;;;;;;;3.20;2.43;;;;;;;5.84;56.18;97804.72;6158104;28;20234;-81
2022/04/18 09:34:20;;;;;;;3.93;2.97;;;;;;;5.57;57.86;97815.03;6142413;28;20233;-82
2022/04/18 09:37:23;;;;;;;3.43;2.73;;;;;;;5.39;60.05;97805.63;6146860;28;20789;-81
2022/04/18 09:40:26;;;;;;;4.77;2.90;;;;;;;5.13;61.86;97813.19;6140978;28;20542;-81
2022/04/18 09:43:44;;;;;;;9.03;3.50;;;;;;;5.01;64.18;97807.78;6148454;28;20248;-81
2022/04/18 09:46:52;;;;;;;3.70;3.10;;;;;;;4.90;65.82;97808.38;6156809;28;20230;-81
2022/04/18 09:53:59;;;;;;;3.90;3.00;;;;;;;4.79;66.54;97800.31;6158384;28;20265;-81
2022/04/18 09:57:05;;;;;;;5.73;3.53;;;;;;;4.81;67.13;97804.50;6143686;28;20813;-82
2022/04/18 10:00:08;;;;;;;5.07;3.70;;;;;;;4.84;69.36;97808.72;6157869;28;20292;-81
2022/04/18 10:03:13;;;;;;;3.53;3.23;;;;;;;4.96;70.00;97804.59;6173069;28;20217;-81
2022/04/18 10:06:15;;;;;;;4.33;3.40;;;;;;;5.07;69.92;97797.84;6157981;28;20225;-81
2022/04/18 10:09:17;;;;;;;4.07;3.37;;;;;;;5.11;69.96;97793.25;6139933;28;20260;-82
2022/04/18 10:12:20;;;;;;;4.67;3.27;;;;;;;5.26;70.69;97799.41;6156279;28;20206;-81
2022/04/18 10:15:23;;;;;;;5.37;3.13;;;;;;;5.33;69.50;97795.50;6154905;28;20712;-80
2022/04/18 10:18:26;;;;;;;3.50;3.00;;;;;;;5.34;68.61;97794.56;6155972;28;20715;-81
2022/04/18 10:21:30;;;;;;;3.53;3.07;;;;;;;5.33;67.69;97783.25;6155382;28;20236;-81
2022/04/18 10:25:06;;;;;;;4.47;3.30;;;;;;;5.31;66.26;97784.28;6171932;28;20237;-81
2022/04/18 10:28:14;;;;;;;4.00;3.20;;;;;;;5.31;65.32;97782.50;6157193;28;20224;-81
2022/04/18 10:31:43;;;;;;;3.37;3.07;;;;;;;5.57;65.45;97776.63;6176513;28;20226;-81
2022/04/18 10:34:50;;;;;;;3.47;3.10;;;;;;;5.84;64.11;97768.03;6139594;28;20686;-81
2022/04/18 10:37:56;;;;;;;5.20;3.10;;;;;;;5.92;63.74;97773.69;6139844;28;20240;-81
2022/04/18 10:41:16;;;;;;;5.30;3.23;;;;;;;5.89;64.02;97760.78;6155294;28;20234;-81
2022/04/18 10:44:18;;;;;;;4.27;3.07;;;;;;;5.91;63.63;97759.75;6140314;28;20244;-81
2022/04/18 10:47:20;;;;;;;4.63;3.50;;;;;;;5.83;63.25;97755.88;6139525;28;20318;-82
2022/04/18 10:50:25;;;;;;;2.80;2.60;;;;;;;5.71;62.38;97746.13;6154895;28;20249;-81
2022/04/18 10:53:35;;;;;;;5.40;2.93;;;;;;;5.77;63.49;97748.41;6139944;28;20616;-81
2022/04/18 10:56:56;;;;;;;7.17;3.37;;;;;;;5.71;63.30;97746.13;6139688;28;20238;-80
2022/04/18 10:59:58;;;;;;;3.70;2.97;;;;;;;5.73;64.73;97746.91;6154006;28;21030;-81
2022/04/18 11:03:00;;;;;;;3.43;2.87;;;;;;;5.74;65.14;97746.81;6155224;28;20244;-81
2022/04/18 11:06:24;;;;;;;5.37;3.33;;;;;;;5.75;65.69;97751.13;6154281;28;20245;-81
2022/04/18 11:09:29;;;;;;;6.37;3.10;;;;;;;5.70;64.78;97753.16;6153859;28;20227;-81
2022/04/18 11:12:33;;;;;;;4.03;3.33;;;;;;;5.73;66.09;97750.34;6139086;28;20228;-81
2022/04/18 11:15:35;;;;;;;3.90;3.50;;;;;;;5.72;65.94;97743.44;6154860;28;20324;-80
2022/04/18 11:18:39;;;;;;;3.57;3.20;;;;;;;5.75;66.25;97743.25;6155949;28;20229;-81
2022/04/18 11:21:54;;;;;;;4.47;3.20;;;;;;;5.76;66.11;97747.56;6155064;28;20727;-81
2022/04/18 11:24:59;;;;;;;4.80;2.90;;;;;;;5.77;64.81;97738.78;6155809;28;20233;-81
2022/04/18 11:28:02;;;;;;;4.73;3.40;;;;;;;5.85;67.28;97735.69;6155587;28;20230;-81
2022/04/18 11:31:09;;;;;;;4.30;3.60;;;;;;;5.88;66.55;97731.16;6154584;28;20238;-81
2022/04/18 11:34:13;;;;;;;5.33;3.87;;;;;;;6.15;66.90;97730.38;6138570;28;20250;-80
2022/04/18 11:37:24;;;;;;;4.87;3.50;;;;;;;6.66;65.30;97721.88;6167853;28;20334;-81
2022/04/18 11:40:26;;;;;;;3.63;3.27;;;;;;;6.92;62.86;97721.97;6155343;28;20226;-81
2022/04/18 11:43:29;;;;;;;3.47;2.80;;;;;;;7.25;62.92;97722.41;6154358;28;20241;-81
2022/04/18 11:46:31;;;;;;;4.37;3.27;;;;;;;7.59;61.70;97713.06;6155127;28;20230;-81
2022/04/18 11:49:33;;;;;;;4.40;3.30;;;;;;;8.05;60.40;97709.94;6153062;28;20237;-82
2022/04/18 11:52:37;;;;;;;3.53;3.03;;;;;;;8.63;56.98;97711.09;6138678;28;20328;-81
2022/04/18 11:55:44;;;;;;;5.33;3.20;;;;;;;9.03;57.39;97711.66;6138595;28;20234;-81
2022/04/18 11:58:46;;;;;;;4.10;2.90;;;;;;;9.08;56.21;97699.03;6138406;28;20373;-81
2022/04/18 12:08:34;;;;;;;3.43;2.93;;;;;;;9.73;56.08;97685.31;6155169;28;20322;-81
2022/04/18 12:11:39;;;;;;;3.63;2.70;;;;;;;10.31;52.75;97679.84;6158897;28;20243;-82
2022/04/18 12:14:45;;;;;;;2.67;2.33;;;;;;;11.01;52.00;97670.66;6158430;28;20614;-81
2022/04/18 12:17:47;;;;;;;5.13;3.07;;;;;;;10.83;49.93;97680.94;6158645;28;20240;-82
2022/04/18 12:20:51;;;;;;;3.70;2.73;;;;;;;10.99;50.38;97665.50;6148837;28;20273;-81
2022/04/18 12:23:55;;;;;;;3.93;2.67;;;;;;;11.71;48.00;97667.41;6159306;28;20234;-82
2022/04/18 12:26:57;;;;;;;5.43;3.20;;;;;;;11.96;48.93;97660.91;6158469;28;20583;-81
2022/04/18 12:29:59;;;;;;;4.00;2.50;;;;;;;12.57;46.19;97661.69;6158452;28;20242;-81
2022/04/18 12:33:21;;;;;;;3.33;2.63;;;;;;;12.86;45.25;97645.84;6134887;28;20334;-82
2022/04/18 12:36:25;;;;;;;3.17;2.63;;;;;;;13.09;45.13;97641.09;6159778;28;20752;-82
2022/04/18 12:39:27;;;;;;;4.40;2.63;;;;;;;12.80;44.35;97643.72;6164787;28;20237;-82
2022/04/18 12:42:29;;;;;;;2.63;2.20;;;;;;;13.26;45.78;97632.47;6159655;28;20312;-81
2022/04/18 12:45:47;;;;;;;3.50;2.73;;;;;;;13.24;43.86;97624.66;6160343;28;20229;-82
2022/04/18 12:48:51;;;;;;;3.00;2.57;;;;;;;13.89;42.74;97614.16;6165861;28;20231;-82
2022/04/18 12:51:53;;;;;;;5.70;2.93;;;;;;;13.90;42.23;97611.38;6163326;28;20238;-82
2022/04/18 12:55:04;;;;;;;3.87;2.80;;;;;;;13.76;40.47;97622.47;6135587;28;20592;-82
2022/04/18 12:58:18;;;;;;;3.60;2.90;;;;;;;14.03;41.07;97611.06;6152688;28;20709;-82
2022/04/18 13:01:41;;;;;;;3.90;2.50;;;;;;;14.24;38.13;97611.66;6141912;28;20242;-83
2022/04/18 13:04:59;;;;;;;5.50;2.40;;;;;;;14.41;39.76;97602.09;6157403;28;20289;-82
2022/04/18 13:08:06;;;;;;;2.87;2.53;;;;;;;15.26;39.53;97585.63;6157675;28;20230;-82
2022/04/18 13:11:08;;;;;;;3.47;2.40;;;;;;;15.90;38.77;97592.38;6157399;28;20264;-82
2022/04/18 13:14:12;;;;;;;2.70;2.30;;;;;;;16.05;37.14;97590.81;6158012;28;20369;-82
2022/04/18 13:17:14;;;;;;;3.60;2.33;;;;;;;16.11;32.82;97582.16;6157138;28;20868;-82
2022/04/18 13:20:16;;;;;;;3.20;2.37;;;;;;;16.26;35.22;97578.91;6157017;28;20229;-82
2022/04/18 13:23:19;;;;;;;3.67;2.13;;;;;;;16.63;33.32;97578.53;6157141;28;20234;-82
2022/04/18 13:26:21;;;;;;;2.73;2.53;;;;;;;17.03;32.96;97569.75;6157023;28;20648;-83
2022/04/18 13:29:23;;;;;;;2.40;2.00;;;;;;;17.81;32.11;97552.19;6156148;28;20320;-82
2022/04/18 13:32:25;;;;;;;2.20;1.80;;;;;;;18.05;31.13;97560.13;6156916;28;20264;-82
2022/04/18 13:35:27;;;;;;;2.60;2.17;;;;;;;17.89;31.53;97553.97;6160713;28;20217;-83
2022/04/18 13:38:29;;;;;;;3.07;2.30;;;;;;;18.90;31.17;97551.31;6171060;28;20228;-82
2022/04/18 13:41:32;;;;;;;3.40;2.37;;;;;;;19.48;29.50;97545.31;6156174;28;20230;-82
2022/04/18 13:44:34;;;;;;;3.40;2.07;;;;;;;20.08;28.10;97545.16;6156153;28;20604;-83
2022/04/18 13:47:41;;;;;;;2.43;2.17;;;;;;;20.86;26.82;97528.34;6156488;28;20237;-82
2022/04/18 13:50:43;;;;;;;3.53;2.50;;;;;;;20.26;28.03;97536.75;6157364;28;20242;-83
2022/04/18 13:53:45;;;;;;;3.77;2.60;;;;;;;21.11;27.72;97541.38;6156662;28;20232;-82
2022/04/18 13:56:47;;;;;;;2.83;2.50;;;;;;;19.85;28.58;97534.56;6155947;28;20230;-83
2022/04/18 13:59:49;;;;;;;3.40;2.40;;;;;;;18.48;30.01;97524.97;6157963;28;20713;-82
2022/04/18 14:02:51;;;;;;;3.87;2.50;;;;;;;17.54;31.83;97528.53;6155996;28;20317;-83
2022/04/18 14:05:55;;;;;;;3.97;2.87;;;;;;;16.32;32.03;97525.81;6140035;28;20329;-82
2022/04/18 14:08:57;;;;;;;3.87;2.83;;;;;;;16.40;33.35;97528.50;6155996;28;20245;-82
2022/04/18 14:11:59;;;;;;;4.10;2.60;;;;;;;16.88;32.14;97517.09;6155988;28;20632;-82
2022/04/18 14:21:45;;;;;;;4.10;2.87;;;;;;;14.46;36.68;97506.06;6131791;28;20313;-82
2022/04/18 14:24:47;;;;;;;3.80;3.07;;;;;;;13.72;38.48;97509.69;6153960;28;20229;-82
2022/04/18 14:27:49;;;;;;;3.60;2.93;;;;;;;13.27;38.50;97509.59;6139401;28;20222;-83
2022/04/18 14:30:51;;;;;;;4.83;2.70;;;;;;;12.65;39.04;97510.06;6155505;28;20222;-82
2022/04/18 14:33:53;;;;;;;3.17;2.60;;;;;;;12.82;39.29;97502.25;6170773;28;20316;-82
2022/04/18 14:36:55;;;;;;;4.40;2.60;;;;;;;12.39;40.92;97502.69;6144928;28;20228;-82
2022/04/18 14:39:57;;;;;;;2.77;2.23;;;;;;;12.54;41.43;97496.00;6156049;28;20228;-82
2022/04/18 14:42:59;;;;;;;4.87;2.47;;;;;;;12.79;40.87;97491.09;6139718;28;20249;-82
2022/04/18 14:46:01;;;;;;;3.10;2.40;;;;;;;13.17;40.38;97487.59;6139875;28;20233;-82
2022/04/18 14:49:04;;;;;;;3.23;2.80;;;;;;;12.92;40.03;97484.53;6156485;28;20664;-82
2022/04/18 14:52:08;;;;;;;4.00;2.70;;;;;;;12.51;41.16;97480.41;6155215;28;20708;-82
2022/04/18 14:55:10;;;;;;;3.77;3.00;;;;;;;12.38;41.88;97487.78;6156379;28;20235;-82
2022/04/18 14:58:13;;;;;;;3.03;2.50;;;;;;;12.78;41.57;97479.66;6139403;28;20615;-82
2022/04/18 15:01:15;;;;;;;2.97;2.53;;;;;;;14.03;39.60;97483.69;6156581;28;20243;-82
2022/04/18 15:04:17;;;;;;;3.80;2.30;;;;;;;14.95;36.95;97491.38;6154901;28;20247;-83
2022/04/18 15:07:19;;;;;;;4.23;2.90;;;;;;;14.17;38.99;97485.00;6154660;28;20260;-82
2022/04/18 15:10:21;;;;;;;3.33;2.73;;;;;;;13.82;39.13;97483.13;6154618;28;20249;-82